sensor_id;sensor_type;location;lat;lon;timestamp;pressure;altitude;pressure_sealevel;temperature;humidity
43683;BME280;29285;52.128;21.060;2023-01-28T00:03:59;101056.63;;;2.78;98.90
43683;BME280;29285;52.128;21.060;2023-01-28T00:09:01;101063.30;;;2.71;98.74
43683;BME280;29285;52.128;21.060;2023-01-28T00:14:03;101062.55;;;2.69;98.82
43683;BME280;29285;52.128;21.060;2023-01-28T00:19:08;101067.35;;;2.70;98.51
43683;BME280;29285;52.128;21.060;2023-01-28T00:24:10;101068.65;;;2.67;98.74
43683;BME280;29285;52.128;21.060;2023-01-28T00:29:12;101070.48;;;2.65;99.08
43683;BME280;29285;52.128;21.060;2023-01-28T00:34:13;101064.58;;;2.62;98.71
43683;BME280;29285;52.128;21.060;2023-01-28T00:39:15;101067.85;;;2.57;98.55
43683;BME280;29285;52.128;21.060;2023-01-28T00:44:18;101069.61;;;2.59;99.01
43683;BME280;29285;52.128;21.060;2023-01-28T00:49:23;101066.63;;;2.62;99.33
43683;BME280;29285;52.128;21.060;2023-01-28T00:54:25;101067.27;;;2.67;99.49
43683;BME280;29285;52.128;21.060;2023-01-28T00:59:26;101067.27;;;2.67;99.38
43683;BME280;29285;52.128;21.060;2023-01-28T01:04:28;101070.98;;;2.65;99.15
43683;BME280;29285;52.128;21.060;2023-01-28T01:09:36;101067.05;;;2.59;99.13
43683;BME280;29285;52.128;21.060;2023-01-28T01:14:37;101067.73;;;2.59;99.29
43683;BME280;29285;52.128;21.060;2023-01-28T01:19:39;101066.03;;;2.59;99.32
43683;BME280;29285;52.128;21.060;2023-01-28T01:24:41;101068.14;;;2.61;99.44
43683;BME280;29285;52.128;21.060;2023-01-28T01:29:43;101068.25;;;2.59;99.33
43683;BME280;29285;52.128;21.060;2023-01-28T01:34:44;101063.14;;;2.60;99.43
43683;BME280;29285;52.128;21.060;2023-01-28T01:39:46;101061.25;;;2.54;99.50
43683;BME280;29285;52.128;21.060;2023-01-28T01:44:53;101058.20;;;2.55;99.39
43683;BME280;29285;52.128;21.060;2023-01-28T02:15:31;101062.13;;;2.73;99.79
43683;BME280;29285;52.128;21.060;2023-01-28T02:31:18;101068.65;;;2.67;99.83
43683;BME280;29285;52.128;21.060;2023-01-28T02:36:28;101064.39;;;2.68;99.92
43683;BME280;29285;52.128;21.060;2023-01-28T02:41:38;101061.31;;;2.69;99.96
43683;BME280;29285;52.128;21.060;2023-01-28T02:46:41;101065.66;;;2.71;99.96
43683;BME280;29285;52.128;21.060;2023-01-28T02:57:48;101070.57;;;2.68;99.90
43683;BME280;29285;52.128;21.060;2023-01-28T03:07:58;101070.42;;;2.70;99.97
43683;BME280;29285;52.128;21.060;2023-01-28T03:13:00;101068.84;;;2.61;99.94
43683;BME280;29285;52.128;21.060;2023-01-28T03:18:31;101068.98;;;2.55;99.91
43683;BME280;29285;52.128;21.060;2023-01-28T03:29:41;101069.89;;;2.50;99.90
43683;BME280;29285;52.128;21.060;2023-01-28T03:35:05;101071.02;;;2.48;99.91
43683;BME280;29285;52.128;21.060;2023-01-28T03:40:27;101070.79;;;2.45;99.88
43683;BME280;29285;52.128;21.060;2023-01-28T03:45:29;101070.79;;;2.45;99.98
43683;BME280;29285;52.128;21.060;2023-01-28T03:50:31;101070.92;;;2.50;99.98
43683;BME280;29285;52.128;21.060;2023-01-28T03:55:33;101067.23;;;2.54;100.00
43683;BME280;29285;52.128;21.060;2023-01-28T04:00:35;101072.08;;;2.55;100.00
43683;BME280;29285;52.128;21.060;2023-01-28T04:05:38;101075.40;;;2.57;100.00
43683;BME280;29285;52.128;21.060;2023-01-28T04:10:40;101067.98;;;2.55;100.00
43683;BME280;29285;52.128;21.060;2023-01-28T04:15:43;101069.33;;;2.55;100.00
43683;BME280;29285;52.128;21.060;2023-01-28T04:20:47;101073.77;;;2.54;100.00
43683;BME280;29285;52.128;21.060;2023-01-28T04:25:50;101069.09;;;2.58;100.00
43683;BME280;29285;52.128;21.060;2023-01-28T04:30:52;101071.45;;;2.57;100.00
43683;BME280;29285;52.128;21.060;2023-01-28T04:35:53;101075.63;;;2.59;100.00
43683;BME280;29285;52.128;21.060;2023-01-28T04:40:55;101075.97;;;2.60;100.00
43683;BME280;29285;52.128;21.060;2023-01-28T04:45:57;101077.23;;;2.62;100.00
43683;BME280;29285;52.128;21.060;2023-01-28T04:51:00;101073.74;;;2.60;100.00
43683;BME280;29285;52.128;21.060;2023-01-28T04:56:02;101076.34;;;2.60;100.00
43683;BME280;29285;52.128;21.060;2023-01-28T05:01:04;101077.61;;;2.63;100.00
43683;BME280;29285;52.128;21.060;2023-01-28T05:06:06;101081.70;;;2.62;100.00
43683;BME280;29285;52.128;21.060;2023-01-28T05:11:08;101082.27;;;2.63;100.00
43683;BME280;29285;52.128;21.060;2023-01-28T05:16:10;101085.60;;;2.61;100.00
43683;BME280;29285;52.128;21.060;2023-01-28T05:21:12;101090.75;;;2.61;100.00
43683;BME280;29285;52.128;21.060;2023-01-28T05:26:14;101086.48;;;2.62;100.00
43683;BME280;29285;52.128;21.060;2023-01-28T05:31:16;101085.30;;;2.62;100.00
43683;BME280;29285;52.128;21.060;2023-01-28T05:36:18;101093.98;;;2.66;100.00
43683;BME280;29285;52.128;21.060;2023-01-28T05:41:20;101094.94;;;2.70;100.00
43683;BME280;29285;52.128;21.060;2023-01-28T05:46:21;101091.52;;;2.70;100.00
43683;BME280;29285;52.128;21.060;2023-01-28T05:51:25;101097.29;;;2.68;100.00
43683;BME280;29285;52.128;21.060;2023-01-28T05:56:27;101095.02;;;2.67;100.00
43683;BME280;29285;52.128;21.060;2023-01-28T06:01:29;101098.66;;;2.68;100.00
43683;BME280;29285;52.128;21.060;2023-01-28T06:06:31;101099.70;;;2.68;100.00
43683;BME280;29285;52.128;21.060;2023-01-28T06:11:33;101100.02;;;2.68;100.00
43683;BME280;29285;52.128;21.060;2023-01-28T06:16:35;101103.60;;;2.67;100.00
43683;BME280;29285;52.128;21.060;2023-01-28T06:21:37;101110.30;;;2.68;100.00
43683;BME280;29285;52.128;21.060;2023-01-28T06:26:38;101116.67;;;2.69;100.00
43683;BME280;29285;52.128;21.060;2023-01-28T06:31:40;101116.83;;;2.62;100.00
43683;BME280;29285;52.128;21.060;2023-01-28T06:36:42;101120.92;;;2.62;100.00
43683;BME280;29285;52.128;21.060;2023-01-28T06:41:44;101122.41;;;2.66;100.00
43683;BME280;29285;52.128;21.060;2023-01-28T06:46:46;101127.80;;;2.69;100.00
43683;BME280;29285;52.128;21.060;2023-01-28T06:51:48;101131.38;;;2.68;100.00
43683;BME280;29285;52.128;21.060;2023-01-28T06:56:50;101133.34;;;2.70;100.00
43683;BME280;29285;52.128;21.060;2023-01-28T07:01:52;101135.40;;;2.71;100.00
43683;BME280;29285;52.128;21.060;2023-01-28T07:06:53;101142.61;;;2.71;100.00
43683;BME280;29285;52.128;21.060;2023-01-28T07:11:55;101146.77;;;2.72;100.00
43683;BME280;29285;52.128;21.060;2023-01-28T07:16:57;101151.59;;;2.73;100.00
43683;BME280;29285;52.128;21.060;2023-01-28T07:21:58;101152.81;;;2.68;100.00
43683;BME280;29285;52.128;21.060;2023-01-28T07:27:03;101148.67;;;2.67;100.00
43683;BME280;29285;52.128;21.060;2023-01-28T07:32:05;101152.47;;;2.68;100.00
43683;BME280;29285;52.128;21.060;2023-01-28T07:37:08;101149.92;;;2.75;100.00
43683;BME280;29285;52.128;21.060;2023-01-28T07:42:10;101153.48;;;2.80;100.00
43683;BME280;29285;52.128;21.060;2023-01-28T07:47:12;101161.38;;;2.80;100.00
43683;BME280;29285;52.128;21.060;2023-01-28T07:52:14;101156.17;;;2.71;100.00
43683;BME280;29285;52.128;21.060;2023-01-28T07:57:15;101159.19;;;2.63;100.00
43683;BME280;29285;52.128;21.060;2023-01-28T08:02:23;101156.07;;;2.62;100.00
43683;BME280;29285;52.128;21.060;2023-01-28T08:07:26;101162.98;;;2.64;100.00
43683;BME280;29285;52.128;21.060;2023-01-28T08:12:28;101156.15;;;2.71;100.00
43683;BME280;29285;52.128;21.060;2023-01-28T08:17:30;101161.38;;;2.74;100.00
43683;BME280;29285;52.128;21.060;2023-01-28T08:22:32;101160.39;;;2.75;100.00
43683;BME280;29285;52.128;21.060;2023-01-28T08:27:34;101158.13;;;2.80;100.00
43683;BME280;29285;52.128;21.060;2023-01-28T08:32:36;101156.50;;;2.83;100.00
43683;BME280;29285;52.128;21.060;2023-01-28T08:37:37;101160.29;;;2.84;100.00
43683;BME280;29285;52.128;21.060;2023-01-28T08:42:46;101158.34;;;2.88;100.00
43683;BME280;29285;52.128;21.060;2023-01-28T08:47:52;101159.83;;;2.92;100.00
43683;BME280;29285;52.128;21.060;2023-01-28T08:52:55;101158.47;;;2.86;100.00
43683;BME280;29285;52.128;21.060;2023-01-28T08:58:01;101158.26;;;2.85;100.00
43683;BME280;29285;52.128;21.060;2023-01-28T09:03:03;101167.61;;;2.88;100.00
43683;BME280;29285;52.128;21.060;2023-01-28T09:08:11;101168.61;;;2.93;100.00
43683;BME280;29285;52.128;21.060;2023-01-28T09:13:14;101174.02;;;2.96;100.00
43683;BME280;29285;52.128;21.060;2023-01-28T09:18:17;101176.61;;;2.97;100.00
43683;BME280;29285;52.128;21.060;2023-01-28T09:23:19;101181.47;;;2.99;100.00
43683;BME280;29285;52.128;21.060;2023-01-28T09:28:21;101188.86;;;3.00;100.00
43683;BME280;29285;52.128;21.060;2023-01-28T09:33:23;101190.91;;;2.99;100.00
43683;BME280;29285;52.128;21.060;2023-01-28T09:38:25;101194.74;;;2.96;100.00
43683;BME280;29285;52.128;21.060;2023-01-28T09:43:56;101194.10;;;2.97;100.00
43683;BME280;29285;52.128;21.060;2023-01-28T09:49:12;101194.52;;;3.00;100.00
43683;BME280;29285;52.128;21.060;2023-01-28T09:54:25;101187.88;;;3.02;100.00
43683;BME280;29285;52.128;21.060;2023-01-28T09:59:28;101186.44;;;3.05;100.00
43683;BME280;29285;52.128;21.060;2023-01-28T10:10:14;101177.57;;;2.95;100.00
43683;BME280;29285;52.128;21.060;2023-01-28T10:20:43;101171.79;;;3.02;100.00
43683;BME280;29285;52.128;21.060;2023-01-28T10:25:47;101170.94;;;3.02;100.00
43683;BME280;29285;52.128;21.060;2023-01-28T10:30:50;101165.33;;;2.99;100.00
43683;BME280;29285;52.128;21.060;2023-01-28T10:35:53;101165.85;;;2.98;100.00
43683;BME280;29285;52.128;21.060;2023-01-28T10:41:00;101167.55;;;2.98;100.00
43683;BME280;29285;52.128;21.060;2023-01-28T10:46:16;101164.43;;;2.97;100.00
43683;BME280;29285;52.128;21.060;2023-01-28T10:51:30;101163.14;;;2.88;100.00
43683;BME280;29285;52.128;21.060;2023-01-28T10:56:33;101159.81;;;2.91;100.00
43683;BME280;29285;52.128;21.060;2023-01-28T11:06:55;101155.74;;;2.93;100.00
43683;BME280;29285;52.128;21.060;2023-01-28T11:11:58;101154.27;;;2.95;100.00
43683;BME280;29285;52.128;21.060;2023-01-28T11:17:15;101152.47;;;2.98;100.00
43683;BME280;29285;52.128;21.060;2023-01-28T11:22:32;101143.40;;;2.99;100.00
43683;BME280;29285;52.128;21.060;2023-01-28T11:27:34;101142.42;;;2.94;100.00
43683;BME280;29285;52.128;21.060;2023-01-28T11:32:36;101135.20;;;2.94;100.00
43683;BME280;29285;52.128;21.060;2023-01-28T11:37:47;101148.65;;;3.02;100.00
43683;BME280;29285;52.128;21.060;2023-01-28T11:42:50;101136.23;;;3.06;100.00
43683;BME280;29285;52.128;21.060;2023-01-28T11:59:08;101128.80;;;2.86;100.00
43683;BME280;29285;52.128;21.060;2023-01-28T12:04:20;101134.58;;;2.90;100.00
43683;BME280;29285;52.128;21.060;2023-01-28T12:15:15;101124.11;;;2.96;100.00
43683;BME280;29285;52.128;21.060;2023-01-28T12:20:28;101119.92;;;2.93;100.00
43683;BME280;29285;52.128;21.060;2023-01-28T12:25:40;101117.86;;;2.87;100.00
43683;BME280;29285;52.128;21.060;2023-01-28T12:31:18;101127.86;;;2.83;100.00
43683;BME280;29285;52.128;21.060;2023-01-28T12:47:00;101119.64;;;2.71;100.00
43683;BME280;29285;52.128;21.060;2023-01-28T12:52:16;101118.92;;;2.69;100.00
43683;BME280;29285;52.128;21.060;2023-01-28T12:57:26;101117.83;;;2.67;100.00
43683;BME280;29285;52.128;21.060;2023-01-28T13:02:41;101123.81;;;2.61;100.00
43683;BME280;29285;52.128;21.060;2023-01-28T13:07:51;101130.04;;;2.57;100.00
43683;BME280;29285;52.128;21.060;2023-01-28T13:12:56;101131.37;;;2.61;100.00
43683;BME280;29285;52.128;21.060;2023-01-28T13:18:01;101126.04;;;2.61;100.00
43683;BME280;29285;52.128;21.060;2023-01-28T13:28:31;101120.61;;;2.45;100.00
43683;BME280;29285;52.128;21.060;2023-01-28T13:33:36;101125.33;;;2.48;100.00
43683;BME280;29285;52.128;21.060;2023-01-28T13:38:38;101126.58;;;2.44;100.00
43683;BME280;29285;52.128;21.060;2023-01-28T13:43:41;101132.65;;;2.41;100.00
43683;BME280;29285;52.128;21.060;2023-01-28T13:48:50;101136.92;;;2.41;100.00
43683;BME280;29285;52.128;21.060;2023-01-28T13:54:13;101136.43;;;2.47;100.00
43683;BME280;29285;52.128;21.060;2023-01-28T14:20:33;101120.73;;;2.49;100.00
43683;BME280;29285;52.128;21.060;2023-01-28T14:25:51;101122.26;;;2.49;100.00
43683;BME280;29285;52.128;21.060;2023-01-28T14:31:00;101135.14;;;2.44;100.00
43683;BME280;29285;52.128;21.060;2023-01-28T14:36:10;101128.70;;;2.52;100.00
43683;BME280;29285;52.128;21.060;2023-01-28T14:41:24;101132.12;;;2.52;100.00
43683;BME280;29285;52.128;21.060;2023-01-28T14:57:17;101135.68;;;2.50;100.00
43683;BME280;29285;52.128;21.060;2023-01-28T15:02:23;101134.20;;;2.53;100.00
43683;BME280;29285;52.128;21.060;2023-01-28T15:07:25;101128.75;;;2.54;100.00
43683;BME280;29285;52.128;21.060;2023-01-28T15:12:29;101134.06;;;2.54;100.00
43683;BME280;29285;52.128;21.060;2023-01-28T15:17:33;101133.91;;;2.55;100.00
43683;BME280;29285;52.128;21.060;2023-01-28T15:22:34;101140.98;;;2.50;100.00
43683;BME280;29285;52.128;21.060;2023-01-28T15:27:37;101145.08;;;2.44;100.00
43683;BME280;29285;52.128;21.060;2023-01-28T15:32:42;101146.95;;;2.38;100.00
43683;BME280;29285;52.128;21.060;2023-01-28T15:37:44;101153.82;;;2.28;100.00
43683;BME280;29285;52.128;21.060;2023-01-28T15:42:47;101156.77;;;2.23;100.00
43683;BME280;29285;52.128;21.060;2023-01-28T15:47:50;101157.09;;;2.22;100.00
43683;BME280;29285;52.128;21.060;2023-01-28T15:52:52;101158.78;;;2.16;100.00
43683;BME280;29285;52.128;21.060;2023-01-28T15:57:56;101162.44;;;2.13;100.00
43683;BME280;29285;52.128;21.060;2023-01-28T16:03:07;101168.69;;;2.10;100.00
43683;BME280;29285;52.128;21.060;2023-01-28T16:08:11;101162.97;;;2.13;100.00
43683;BME280;29285;52.128;21.060;2023-01-28T16:13:21;101163.86;;;2.04;100.00
43683;BME280;29285;52.128;21.060;2023-01-28T16:23:39;101170.90;;;2.04;100.00
43683;BME280;29285;52.128;21.060;2023-01-28T16:28:40;101173.79;;;2.04;100.00
43683;BME280;29285;52.128;21.060;2023-01-28T16:33:42;101173.55;;;2.02;100.00
43683;BME280;29285;52.128;21.060;2023-01-28T16:38:44;101172.61;;;2.04;100.00
43683;BME280;29285;52.128;21.060;2023-01-28T16:43:46;101168.11;;;2.08;100.00
43683;BME280;29285;52.128;21.060;2023-01-28T16:48:48;101179.84;;;2.06;100.00
43683;BME280;29285;52.128;21.060;2023-01-28T16:53:50;101176.55;;;1.93;100.00
43683;BME280;29285;52.128;21.060;2023-01-28T16:58:53;101176.77;;;1.89;100.00
43683;BME280;29285;52.128;21.060;2023-01-28T17:03:54;101185.77;;;1.88;100.00
43683;BME280;29285;52.128;21.060;2023-01-28T17:08:57;101187.58;;;1.86;100.00
43683;BME280;29285;52.128;21.060;2023-01-28T17:13:59;101178.36;;;1.86;100.00
43683;BME280;29285;52.128;21.060;2023-01-28T17:19:01;101182.23;;;1.89;100.00
43683;BME280;29285;52.128;21.060;2023-01-28T17:24:04;101184.83;;;1.85;100.00
43683;BME280;29285;52.128;21.060;2023-01-28T17:29:06;101178.73;;;1.82;100.00
43683;BME280;29285;52.128;21.060;2023-01-28T17:34:08;101180.88;;;1.85;100.00
43683;BME280;29285;52.128;21.060;2023-01-28T17:39:11;101180.88;;;1.90;100.00
43683;BME280;29285;52.128;21.060;2023-01-28T17:44:14;101187.63;;;1.92;100.00
43683;BME280;29285;52.128;21.060;2023-01-28T17:49:15;101190.12;;;1.95;100.00
43683;BME280;29285;52.128;21.060;2023-01-28T17:54:18;101189.42;;;1.95;100.00
43683;BME280;29285;52.128;21.060;2023-01-28T17:59:20;101189.21;;;1.93;100.00
43683;BME280;29285;52.128;21.060;2023-01-28T18:04:22;101197.48;;;1.90;100.00
43683;BME280;29285;52.128;21.060;2023-01-28T18:09:26;101206.17;;;1.94;100.00
43683;BME280;29285;52.128;21.060;2023-01-28T18:14:28;101200.64;;;1.92;99.96
43683;BME280;29285;52.128;21.060;2023-01-28T18:19:30;101199.56;;;1.86;99.92
43683;BME280;29285;52.128;21.060;2023-01-28T18:24:32;101207.98;;;1.81;99.70
43683;BME280;29285;52.128;21.060;2023-01-28T18:29:33;101212.65;;;1.73;99.63
43683;BME280;29285;52.128;21.060;2023-01-28T18:34:35;101213.79;;;1.65;99.32
43683;BME280;29285;52.128;21.060;2023-01-28T18:39:37;101226.23;;;1.65;99.24
43683;BME280;29285;52.128;21.060;2023-01-28T18:44:40;101232.42;;;1.70;99.21
43683;BME280;29285;52.128;21.060;2023-01-28T18:49:42;101223.42;;;1.73;99.28
43683;BME280;29285;52.128;21.060;2023-01-28T18:54:43;101223.73;;;1.66;98.91
43683;BME280;29285;52.128;21.060;2023-01-28T18:59:46;101226.77;;;1.61;98.81
43683;BME280;29285;52.128;21.060;2023-01-28T19:04:48;101220.10;;;1.61;98.52
43683;BME280;29285;52.128;21.060;2023-01-28T19:09:50;101215.08;;;1.54;98.43
43683;BME280;29285;52.128;21.060;2023-01-28T19:14:51;101219.40;;;1.45;98.08
43683;BME280;29285;52.128;21.060;2023-01-28T19:19:53;101214.81;;;1.46;97.85
43683;BME280;29285;52.128;21.060;2023-01-28T19:24:55;101217.92;;;1.52;98.13
43683;BME280;29285;52.128;21.060;2023-01-28T19:29:56;101221.27;;;1.50;97.97
43683;BME280;29285;52.128;21.060;2023-01-28T19:34:58;101226.45;;;1.56;98.00
43683;BME280;29285;52.128;21.060;2023-01-28T19:40:00;101227.58;;;1.54;97.93
43683;BME280;29285;52.128;21.060;2023-01-28T19:45:02;101228.98;;;1.45;98.03
43683;BME280;29285;52.128;21.060;2023-01-28T19:50:06;101236.52;;;1.46;97.72
43683;BME280;29285;52.128;21.060;2023-01-28T19:55:08;101239.18;;;1.43;97.36
43683;BME280;29285;52.128;21.060;2023-01-28T20:00:10;101240.35;;;1.33;97.43
43683;BME280;29285;52.128;21.060;2023-01-28T20:05:12;101236.98;;;1.29;97.28
43683;BME280;29285;52.128;21.060;2023-01-28T20:10:14;101238.37;;;1.26;96.77
43683;BME280;29285;52.128;21.060;2023-01-28T20:15:16;101251.59;;;1.18;96.81
43683;BME280;29285;52.128;21.060;2023-01-28T20:20:17;101249.12;;;1.16;96.42
43683;BME280;29285;52.128;21.060;2023-01-28T20:25:19;101250.38;;;1.22;96.33
43683;BME280;29285;52.128;21.060;2023-01-28T20:30:21;101259.72;;;1.21;96.49
43683;BME280;29285;52.128;21.060;2023-01-28T20:35:27;101255.21;;;1.14;96.27
43683;BME280;29285;52.128;21.060;2023-01-28T20:40:32;101254.91;;;1.10;96.10
43683;BME280;29285;52.128;21.060;2023-01-28T20:45:34;101262.75;;;1.01;95.60
43683;BME280;29285;52.128;21.060;2023-01-28T20:50:36;101260.11;;;0.99;95.70
43683;BME280;29285;52.128;21.060;2023-01-28T20:55:37;101264.15;;;0.92;95.32
43683;BME280;29285;52.128;21.060;2023-01-28T21:00:39;101267.60;;;0.89;95.14
43683;BME280;29285;52.128;21.060;2023-01-28T21:05:44;101273.38;;;0.84;94.81
43683;BME280;29285;52.128;21.060;2023-01-28T21:10:46;101275.34;;;0.82;94.66
43683;BME280;29285;52.128;21.060;2023-01-28T21:15:54;101287.30;;;0.86;94.45
43683;BME280;29285;52.128;21.060;2023-01-28T21:21:11;101284.31;;;0.79;94.41
43683;BME280;29285;52.128;21.060;2023-01-28T21:26:15;101280.71;;;0.79;94.30
43683;BME280;29285;52.128;21.060;2023-01-28T21:31:23;101279.79;;;0.86;94.32
43683;BME280;29285;52.128;21.060;2023-01-28T21:36:25;101271.29;;;0.87;94.11
43683;BME280;29285;52.128;21.060;2023-01-28T21:41:29;101261.55;;;0.87;94.11
43683;BME280;29285;52.128;21.060;2023-01-28T21:46:32;101253.92;;;0.88;94.25
43683;BME280;29285;52.128;21.060;2023-01-28T21:51:35;101250.69;;;0.93;93.93
43683;BME280;29285;52.128;21.060;2023-01-28T21:56:37;101260.04;;;0.87;93.81
43683;BME280;29285;52.128;21.060;2023-01-28T22:01:39;101249.27;;;0.88;93.59
43683;BME280;29285;52.128;21.060;2023-01-28T22:06:41;101243.12;;;0.87;93.39
43683;BME280;29285;52.128;21.060;2023-01-28T22:11:44;101240.23;;;0.83;93.24
43683;BME280;29285;52.128;21.060;2023-01-28T22:16:46;101234.64;;;0.85;93.29
43683;BME280;29285;52.128;21.060;2023-01-28T22:21:48;101221.35;;;0.86;93.07
43683;BME280;29285;52.128;21.060;2023-01-28T22:26:51;101213.42;;;0.75;92.89
43683;BME280;29285;52.128;21.060;2023-01-28T22:31:53;101209.17;;;0.71;92.78
43683;BME280;29285;52.128;21.060;2023-01-28T22:36:55;101210.43;;;0.73;92.69
43683;BME280;29285;52.128;21.060;2023-01-28T22:41:57;101217.69;;;0.79;92.52
43683;BME280;29285;52.128;21.060;2023-01-28T22:46:59;101210.12;;;0.83;92.54
43683;BME280;29285;52.128;21.060;2023-01-28T22:52:00;101222.09;;;0.82;92.79
43683;BME280;29285;52.128;21.060;2023-01-28T22:57:02;101226.27;;;0.80;92.64
43683;BME280;29285;52.128;21.060;2023-01-28T23:02:04;101232.46;;;0.77;92.34
43683;BME280;29285;52.128;21.060;2023-01-28T23:07:05;101239.55;;;0.71;92.09
43683;BME280;29285;52.128;21.060;2023-01-28T23:12:07;101250.55;;;0.63;91.97
43683;BME280;29285;52.128;21.060;2023-01-28T23:17:09;101257.13;;;0.61;91.92
43683;BME280;29285;52.128;21.060;2023-01-28T23:22:31;101266.67;;;0.61;91.91
43683;BME280;29285;52.128;21.060;2023-01-28T23:27:52;101257.09;;;0.60;91.91
43683;BME280;29285;52.128;21.060;2023-01-28T23:32:55;101248.50;;;0.59;91.77
43683;BME280;29285;52.128;21.060;2023-01-28T23:37:58;101246.58;;;0.62;91.94
43683;BME280;29285;52.128;21.060;2023-01-28T23:42:59;101244.07;;;0.68;91.94
43683;BME280;29285;52.128;21.060;2023-01-28T23:48:01;101240.69;;;0.73;91.92
43683;BME280;29285;52.128;21.060;2023-01-28T23:53:04;101240.73;;;0.74;91.85
43683;BME280;29285;52.128;21.060;2023-01-28T23:58:13;101235.00;;;0.67;91.69
